Time;durP1;ratioP1;P1;durP2;ratioP2;P2;SDS_P1;SDS_P2;PMS_P1;PMS_P2;Temp;Humidity;BMP_temperature;BMP_pressure;BME280_temperature;BME280_humidity;BME280_pressure;Samples;Min_cycle;Max_cycle;Signal;HPM_P1;HPM_P2
2023/03/23 00:02:27;;;;;;;34.70;25.50;;;;;;;8.86;73.21;99763.20;106202;1253;63167;-73
2023/03/23 00:04:55;;;;;;;30.90;25.70;;;;;;;8.89;73.14;99761.79;106070;1253;60261;-75
2023/03/23 00:07:27;;;;;;;35.80;27.60;;;;;;;8.85;73.16;99760.41;105616;1256;73193;-76
2023/03/23 00:09:54;;;;;;;34.30;27.00;;;;;;;8.81;73.09;99754.13;105355;1258;68521;-75
2023/03/23 00:12:28;;;;;;;31.70;26.50;;;;;;;8.79;73.37;99754.31;105791;1257;72846;-77
2023/03/23 00:14:56;;;;;;;37.10;27.50;;;;;;;8.75;73.40;99746.05;105798;1253;60286;-78
2023/03/23 00:17:25;;;;;;;34.60;27.00;;;;;;;8.72;73.50;99739.51;105904;1258;59648;-76
2023/03/23 00:19:52;;;;;;;30.40;25.30;;;;;;;8.70;73.37;99735.85;105608;1258;72349;-74
2023/03/23 00:22:21;;;;;;;30.70;25.50;;;;;;;8.76;73.42;99727.67;105924;1258;68767;-72
2023/03/23 00:24:50;;;;;;;31.80;24.30;;;;;;;8.75;73.78;99728.66;105877;1253;72008;-71
2023/03/23 00:27:21;;;;;;;34.70;26.90;;;;;;;8.70;73.89;99732.54;105984;1259;59625;-72
2023/03/23 00:29:55;;;;;;;37.10;28.50;;;;;;;8.64;73.77;99734.13;105939;1258;60765;-73
2023/03/23 00:32:29;;;;;;;35.70;26.30;;;;;;;8.59;74.10;99731.47;105754;1258;72625;-72
2023/03/23 00:35:00;;;;;;;37.30;27.40;;;;;;;8.55;74.50;99727.84;105731;1253;71370;-75
2023/03/23 00:37:27;;;;;;;40.90;27.40;;;;;;;8.54;74.57;99725.32;105675;1253;71638;-74
2023/03/23 00:39:56;;;;;;;33.80;26.50;;;;;;;8.62;74.33;99721.60;105900;1254;63219;-73
2023/03/23 00:42:25;;;;;;;34.60;27.60;;;;;;;8.66;74.41;99719.63;105353;1253;60096;-74
2023/03/23 00:44:59;;;;;;;35.90;27.20;;;;;;;8.63;74.35;99715.88;105826;1253;74939;-72
2023/03/23 00:47:28;;;;;;;37.20;26.90;;;;;;;8.60;74.40;99716.91;107385;1254;71153;-73
2023/03/23 00:49:56;;;;;;;38.10;28.20;;;;;;;8.58;74.42;99709.16;108187;1253;71719;-73
2023/03/23 00:52:25;;;;;;;35.60;28.10;;;;;;;8.57;74.58;99709.98;106432;1253;59622;-73
2023/03/23 00:54:54;;;;;;;33.60;25.20;;;;;;;8.55;74.75;99708.23;106102;1253;61360;-74
2023/03/23 00:57:23;;;;;;;31.10;25.20;;;;;;;8.62;74.64;99705.45;105531;1253;73198;-73
2023/03/23 00:59:51;;;;;;;32.50;26.20;;;;;;;8.68;74.74;99707.98;106129;1253;71408;-73
2023/03/23 01:02:19;;;;;;;35.40;26.10;;;;;;;8.66;74.92;99711.56;105235;1261;73437;-70
2023/03/23 01:04:51;;;;;;;28.50;24.10;;;;;;;8.63;74.92;99712.90;105413;1253;62352;-70
2023/03/23 01:07:20;;;;;;;31.30;25.90;;;;;;;8.60;75.14;99711.59;105856;1259;60769;-73
2023/03/23 01:09:48;;;;;;;30.90;25.50;;;;;;;8.57;75.37;99709.67;105796;1257;75354;-73
2023/03/23 01:12:15;;;;;;;28.10;24.10;;;;;;;8.56;75.49;99709.94;105549;1253;70726;-72
2023/03/23 01:14:48;;;;;;;29.30;24.00;;;;;;;8.63;75.39;99714.27;105167;1253;72659;-72
2023/03/23 01:17:18;;;;;;;31.10;25.30;;;;;;;8.69;75.33;99710.58;105590;1253;60313;-75
2023/03/23 01:19:46;;;;;;;30.80;25.50;;;;;;;8.64;75.32;99712.22;105726;1260;60575;-75
2023/03/23 01:22:13;;;;;;;32.10;26.80;;;;;;;8.61;75.74;99711.02;106042;1257;72901;-77
2023/03/23 01:24:41;;;;;;;32.80;27.60;;;;;;;8.57;75.67;99712.06;105771;1253;70228;-74
2023/03/23 01:27:08;;;;;;;34.80;27.30;;;;;;;8.53;75.70;99707.74;105856;1256;71900;-73
2023/03/23 01:29:35;;;;;;;28.40;24.10;;;;;;;8.51;75.97;99706.17;106069;1253;62047;-71
2023/03/23 01:32:02;;;;;;;29.60;24.10;;;;;;;8.58;75.73;99705.98;106030;1253;59704;-72
2023/03/23 01:34:31;;;;;;;30.40;24.90;;;;;;;8.59;75.60;99704.48;105738;1258;73097;-75
2023/03/23 01:36:59;;;;;;;30.40;25.30;;;;;;;8.55;75.76;99704.52;105734;1259;70192;-74
2023/03/23 01:39:26;;;;;;;29.00;24.80;;;;;;;8.52;75.58;99706.11;105713;1256;73696;-76
2023/03/23 01:41:53;;;;;;;29.00;25.00;;;;;;;8.48;75.83;99705.95;106578;1253;60456;-73
2023/03/23 01:44:23;;;;;;;30.40;23.00;;;;;;;8.46;75.56;99705.77;108734;1253;60198;-73
2023/03/23 01:47:01;;;;;;;29.60;23.60;;;;;;;8.53;75.53;99702.15;107766;1256;73410;-74
2023/03/23 01:49:41;;;;;;;29.00;24.20;;;;;;;8.57;75.25;99702.08;105693;1257;71311;-73
2023/03/23 01:52:13;;;;;;;31.10;24.20;;;;;;;8.52;75.34;99696.16;105494;1259;73012;-74
2023/03/23 01:54:44;;;;;;;32.10;25.80;;;;;;;8.48;75.52;99694.66;105642;1259;61238;-72
2023/03/23 01:57:15;;;;;;;30.70;26.60;;;;;;;8.43;75.61;99692.52;105399;1253;59791;-72
2023/03/23 01:59:44;;;;;;;31.20;25.10;;;;;;;8.39;75.77;99693.61;105537;1253;72255;-73
2023/03/23 02:02:38;;;;;;;29.00;23.30;;;;;;;8.46;75.68;99697.10;105750;1258;69598;-75
2023/03/23 02:05:08;;;;;;;29.00;22.70;;;;;;;8.49;75.27;99700.42;105691;1255;71453;-73
2023/03/23 02:07:36;;;;;;;30.50;23.50;;;;;;;8.46;75.14;99695.36;106227;1253;60663;-75
2023/03/23 02:10:05;;;;;;;29.30;25.50;;;;;;;8.45;75.07;99698.42;105993;1253;60280;-73
2023/03/23 02:12:33;;;;;;;28.20;24.20;;;;;;;8.44;75.13;99696.41;106088;1259;74236;-75
2023/03/23 02:15:00;;;;;;;27.50;23.30;;;;;;;8.45;75.03;99696.92;105794;1258;69922;-72
2023/03/23 02:18:05;;;;;;;28.00;23.40;;;;;;;8.54;74.87;99692.07;105973;1256;73383;-76
2023/03/23 02:20:48;;;;;;;28.30;23.40;;;;;;;8.60;74.72;99694.14;105880;1254;60285;-74
2023/03/23 02:23:19;;;;;;;29.90;23.50;;;;;;;8.59;74.35;99692.67;105743;1259;60597;-75
2023/03/23 02:26:00;;;;;;;29.80;23.90;;;;;;;8.59;74.48;99689.53;105960;1253;73716;-75
2023/03/23 02:28:49;;;;;;;30.40;24.90;;;;;;;8.57;74.63;99692.84;105832;1258;70183;-75
2023/03/23 02:31:39;;;;;;;28.70;22.40;;;;;;;8.57;74.68;99693.90;106139;1253;72657;-75
2023/03/23 02:34:29;;;;;;;27.70;23.40;;;;;;;8.69;74.46;99689.86;106008;1255;61234;-74
2023/03/23 02:37:10;;;;;;;27.60;23.30;;;;;;;8.72;74.27;99690.77;107307;1253;59189;-74
2023/03/23 02:39:46;;;;;;;27.20;23.20;;;;;;;8.71;74.43;99692.13;108786;1253;72065;-72
2023/03/23 02:42:18;;;;;;;28.80;22.90;;;;;;;8.72;74.18;99686.89;106909;1260;70141;-73
2023/03/23 02:44:45;;;;;;;28.90;25.60;;;;;;;8.73;74.34;99688.23;106549;1254;72736;-72
2023/03/23 02:47:17;;;;;;;31.10;24.60;;;;;;;8.74;74.08;99686.19;106032;1258;62013;-74
2023/03/23 02:49:46;;;;;;;27.60;23.70;;;;;;;8.83;74.08;99687.92;105755;1253;60338;-74
2023/03/23 02:52:19;;;;;;;29.80;26.00;;;;;;;8.86;73.79;99686.37;105947;1253;72979;-74
2023/03/23 02:54:48;;;;;;;28.40;23.90;;;;;;;8.83;74.08;99686.29;106089;1253;71639;-76
2023/03/23 02:57:16;;;;;;;33.40;26.30;;;;;;;8.81;74.17;99685.86;105576;1261;72563;-75
2023/03/23 02:59:45;;;;;;;30.80;24.80;;;;;;;8.78;74.44;99688.58;105846;1255;60672;-75
2023/03/23 03:02:15;;;;;;;35.10;26.80;;;;;;;8.76;74.18;99689.30;106228;1256;60101;-72
2023/03/23 03:04:42;;;;;;;29.30;24.30;;;;;;;8.74;74.23;99686.41;105919;1253;74049;-72
2023/03/23 03:07:45;;;;;;;30.00;22.80;;;;;;;8.84;74.25;99686.42;105299;1256;71463;-74
2023/03/23 03:10:44;;;;;;;31.10;25.60;;;;;;;8.91;74.05;99688.84;105474;1256;71893;-72
2023/03/23 03:13:51;;;;;;;30.20;26.40;;;;;;;8.88;74.17;99689.91;105928;1253;60451;-73
2023/03/23 03:16:31;;;;;;;30.70;25.80;;;;;;;8.85;74.19;99692.33;106059;1254;60044;-75
2023/03/23 03:19:25;;;;;;;33.00;26.00;;;;;;;8.82;74.13;99694.77;105213;1254;72557;-74
2023/03/23 03:21:54;;;;;;;30.00;25.30;;;;;;;8.80;74.13;99695.25;105714;1254;68829;-75
2023/03/23 03:24:26;;;;;;;31.10;24.50;;;;;;;8.83;74.27;99694.08;105585;1260;71747;-75
2023/03/23 03:26:57;;;;;;;29.60;25.40;;;;;;;8.90;74.22;99686.81;105632;1259;60476;-75
2023/03/23 03:29:47;;;;;;;28.90;24.80;;;;;;;8.89;74.09;99682.19;105717;1259;61010;-76
2023/03/23 03:32:18;;;;;;;28.70;25.20;;;;;;;8.84;74.22;99678.73;106039;1259;74876;-73
2023/03/23 03:34:47;;;;;;;34.10;26.60;;;;;;;8.82;74.26;99682.13;106575;1254;69739;-72
2023/03/23 03:37:15;;;;;;;32.40;26.50;;;;;;;8.77;74.30;99677.20;106963;1255;71809;-76
2023/03/23 03:39:44;;;;;;;31.70;25.60;;;;;;;8.74;74.38;99685.98;107486;1253;60879;-73
2023/03/23 03:42:11;;;;;;;30.40;22.90;;;;;;;8.71;74.64;99678.58;107333;1257;60451;-73
2023/03/23 03:44:41;;;;;;;27.90;23.30;;;;;;;8.78;74.40;99677.62;105973;1255;73824;-73
2023/03/23 03:47:08;;;;;;;29.50;24.30;;;;;;;8.81;74.16;99678.23;105880;1254;69777;-72
2023/03/23 03:49:35;;;;;;;31.70;25.30;;;;;;;8.76;74.11;99682.55;105707;1253;70112;-75
2023/03/23 03:52:05;;;;;;;33.90;26.00;;;;;;;8.73;74.27;99679.98;105756;1253;61921;-72
2023/03/23 03:54:40;;;;;;;29.30;25.20;;;;;;;8.68;74.38;99681.84;106839;1259;60358;-72
2023/03/23 03:57:10;;;;;;;28.90;24.40;;;;;;;8.65;74.44;99679.88;106810;1253;72032;-75
2023/03/23 03:59:55;;;;;;;27.80;23.60;;;;;;;8.62;74.75;99679.40;107685;1253;70651;-75
2023/03/23 04:02:42;;;;;;;29.30;23.60;;;;;;;8.72;74.25;99681.77;107721;1254;72448;-72
2023/03/23 04:05:11;;;;;;;27.00;22.90;;;;;;;8.74;74.23;99678.83;107290;1256;60448;-74
2023/03/23 04:07:39;;;;;;;27.40;23.90;;;;;;;8.71;74.11;99683.12;106213;1260;60317;-73
2023/03/23 04:10:06;;;;;;;29.20;24.40;;;;;;;8.69;74.38;99682.61;105800;1258;73220;-73
2023/03/23 04:12:35;;;;;;;31.00;24.60;;;;;;;8.68;74.29;99686.11;105781;1259;70653;-74
2023/03/23 04:15:21;;;;;;;28.00;21.70;;;;;;;8.67;74.52;99687.96;105654;1260;72134;-74
2023/03/23 04:17:50;;;;;;;26.40;21.50;;;;;;;8.75;74.39;99684.46;105954;1254;60540;-76
2023/03/23 04:20:17;;;;;;;29.00;24.20;;;;;;;8.77;74.24;99687.76;105753;1254;60444;-75
2023/03/23 04:22:51;;;;;;;26.90;23.30;;;;;;;8.76;74.32;99689.52;105871;1259;74278;-78
2023/03/23 04:25:23;;;;;;;26.50;23.70;;;;;;;8.75;74.18;99688.39;105976;1254;69834;-75
2023/03/23 04:27:52;;;;;;;28.10;22.40;;;;;;;8.75;74.34;99687.02;107747;1260;72516;-74
2023/03/23 04:30:24;;;;;;;25.10;21.00;;;;;;;8.75;74.48;99685.39;107676;1258;60333;-74
2023/03/23 04:33:26;;;;;;;27.00;22.20;;;;;;;8.86;74.20;99685.65;106531;1254;60416;-75
2023/03/23 04:36:00;;;;;;;25.50;21.10;;;;;;;8.89;73.96;99686.09;106550;1253;73832;-75
2023/03/23 04:38:50;;;;;;;29.10;23.20;;;;;;;8.90;73.94;99688.47;106071;1254;71292;-74
2023/03/23 04:41:26;;;;;;;25.10;22.40;;;;;;;8.92;73.87;99687.55;105743;1258;73842;-76
2023/03/23 04:44:06;;;;;;;26.80;20.80;;;;;;;8.93;73.75;99685.35;105964;1254;60505;-76
2023/03/23 04:46:49;;;;;;;25.50;20.00;;;;;;;8.98;73.41;99684.90;105896;1255;60595;-75
2023/03/23 04:49:21;;;;;;;;;;;;;;;9.10;73.47;99684.22;105682;1254;72920;-74
2023/03/23 04:51:51;;;;;;;27.20;22.70;;;;;;;9.12;73.26;99680.88;105840;1260;69418;-76
2023/03/23 04:54:44;;;;;;;28.40;21.70;;;;;;;9.13;73.04;99682.17;105771;1259;71605;-75
2023/03/23 04:57:12;;;;;;;27.40;22.70;;;;;;;9.13;73.20;99687.98;105752;1259;60432;-75
2023/03/23 04:59:44;;;;;;;26.10;23.30;;;;;;;9.13;72.94;99688.01;105900;1255;60451;-74
2023/03/23 05:02:18;;;;;;;32.10;23.30;;;;;;;9.14;72.97;99685.98;105980;1259;71931;-74
2023/03/23 05:04:46;;;;;;;24.30;21.30;;;;;;;9.19;72.82;99687.23;105887;1259;70457;-75
2023/03/23 05:07:18;;;;;;;23.50;20.80;;;;;;;9.31;72.39;99692.34;105866;1253;73916;-74
2023/03/23 05:09:49;;;;;;;24.40;21.80;;;;;;;9.35;72.30;99693.44;105974;1259;60446;-75
2023/03/23 05:12:19;;;;;;;24.10;19.90;;;;;;;9.38;71.90;99693.49;106106;1258;60425;-77
2023/03/23 05:14:55;;;;;;;25.90;22.10;;;;;;;9.40;71.75;99694.66;106260;1253;74568;-77
2023/03/23 05:17:25;;;;;;;28.00;22.30;;;;;;;9.41;71.77;99692.61;106269;1259;70652;-78
2023/03/23 05:19:56;;;;;;;26.50;23.10;;;;;;;9.43;71.66;99696.39;106643;1254;72236;-78
2023/03/23 05:22:36;;;;;;;27.10;20.80;;;;;;;9.44;71.68;99693.41;106571;1254;60408;-75
2023/03/23 05:25:06;;;;;;;24.90;18.70;;;;;;;9.51;71.46;99695.88;108794;1258;59910;-78
2023/03/23 05:27:42;;;;;;;21.70;18.30;;;;;;;9.68;71.28;99694.98;109318;1253;73009;-75
2023/03/23 05:30:20;;;;;;;23.90;19.90;;;;;;;9.74;70.25;99692.88;108600;1253;70412;-75
2023/03/23 05:32:52;;;;;;;22.40;18.90;;;;;;;9.77;70.34;99692.60;108747;1253;71743;-77
2023/03/23 05:35:33;;;;;;;24.00;19.80;;;;;;;9.79;70.20;99693.41;108244;1254;60530;-75
2023/03/23 05:38:01;;;;;;;27.70;20.70;;;;;;;9.81;70.14;99695.11;106398;1255;60549;-76
2023/03/23 05:40:36;;;;;;;27.00;22.30;;;;;;;9.82;70.05;99696.59;107037;1257;74740;-73
2023/03/23 05:43:10;;;;;;;23.60;21.10;;;;;;;9.83;69.74;99697.23;106512;1254;70718;-75
2023/03/23 05:46:07;;;;;;;23.90;20.30;;;;;;;9.84;69.99;99696.40;108370;1253;73037;-77
2023/03/23 05:48:38;;;;;;;24.40;20.60;;;;;;;9.85;70.00;99698.41;108104;1253;60499;-76
2023/03/23 05:51:06;;;;;;;25.00;21.00;;;;;;;9.87;69.78;99696.50;107239;1259;60296;-76
2023/03/23 05:53:35;;;;;;;26.10;19.70;;;;;;;9.88;69.78;99695.27;107380;1257;74096;-75
2023/03/23 05:56:03;;;;;;;22.80;18.90;;;;;;;9.94;69.71;99694.94;107389;1255;71304;-76
2023/03/23 05:58:55;;;;;;;22.30;19.20;;;;;;;10.10;69.17;99695.61;107420;1258;72618;-77
2023/03/23 06:01:23;;;;;;;21.70;18.60;;;;;;;10.13;69.11;99699.90;107961;1254;60538;-76
2023/03/23 06:03:58;;;;;;;23.60;20.00;;;;;;;10.13;69.06;99702.91;107301;1254;60332;-75
2023/03/23 06:06:36;;;;;;;27.80;21.80;;;;;;;10.10;68.80;99712.01;108075;1256;72935;-77
2023/03/23 06:09:07;;;;;;;23.40;20.80;;;;;;;10.08;68.99;99710.44;107627;1257;69413;-75
2023/03/23 06:11:59;;;;;;;24.00;19.40;;;;;;;10.07;69.01;99709.52;106904;1253;72324;-77
2023/03/23 06:14:49;;;;;;;25.70;22.40;;;;;;;10.05;69.06;99715.55;107433;1256;60733;-75
2023/03/23 06:17:18;;;;;;;25.70;22.60;;;;;;;10.04;69.42;99713.70;107231;1253;60432;-74
2023/03/23 06:19:48;;;;;;;24.00;20.30;;;;;;;10.06;69.73;99710.34;107920;1259;74226;-76
2023/03/23 06:22:17;;;;;;;29.30;22.60;;;;;;;10.09;69.20;99711.58;108249;1253;71003;-76
2023/03/23 06:24:59;;;;;;;27.60;22.40;;;;;;;10.12;69.70;99715.48;108263;1254;70861;-75
2023/03/23 06:27:35;;;;;;;25.90;22.90;;;;;;;10.16;69.41;99713.48;108376;1253;60520;-75
2023/03/23 06:30:04;;;;;;;26.50;21.90;;;;;;;10.21;69.19;99719.36;107820;1255;60644;-75
2023/03/23 06:32:35;;;;;;;23.80;21.20;;;;;;;10.33;69.55;99717.36;107388;1257;74043;-75
2023/03/23 06:35:03;;;;;;;24.50;21.80;;;;;;;10.42;68.91;99718.14;106871;1259;69653;-76
2023/03/23 06:37:49;;;;;;;26.70;20.80;;;;;;;10.45;68.48;99728.34;107138;1254;71436;-76
2023/03/23 06:40:27;;;;;;;26.70;22.20;;;;;;;10.43;68.54;99722.85;108178;1257;60416;-76
2023/03/23 06:42:58;;;;;;;25.00;22.20;;;;;;;10.44;68.70;99723.23;107642;1260;60461;-75
2023/03/23 06:45:46;;;;;;;24.00;21.10;;;;;;;10.47;68.49;99717.33;108173;1254;73318;-76
2023/03/23 06:48:40;;;;;;;24.00;20.70;;;;;;;10.51;68.67;99715.64;108951;1254;68749;-77
2023/03/23 06:51:11;;;;;;;28.70;21.70;;;;;;;10.55;68.36;99716.51;108114;1253;72334;-78
2023/03/23 06:53:40;;;;;;;26.00;21.40;;;;;;;10.62;68.34;99721.61;107525;1253;60331;-79
2023/03/23 06:56:10;;;;;;;23.70;21.00;;;;;;;10.67;67.97;99715.89;107612;1255;61202;-77
2023/03/23 06:58:41;;;;;;;23.90;21.30;;;;;;;10.74;68.09;99716.25;107397;1259;72030;-78
2023/03/23 07:01:09;;;;;;;25.20;21.40;;;;;;;10.81;67.81;99714.58;107797;1256;70115;-75
2023/03/23 07:03:42;;;;;;;27.30;21.70;;;;;;;10.89;67.54;99715.88;108067;1253;73996;-74
2023/03/23 07:06:11;;;;;;;25.70;21.20;;;;;;;10.97;67.48;99717.61;108273;1254;60443;-76
2023/03/23 07:08:44;;;;;;;28.80;21.60;;;;;;;11.06;67.15;99714.09;107482;1254;60360;-78
2023/03/23 07:11:18;;;;;;;27.60;22.00;;;;;;;11.17;67.05;99711.49;108293;1254;71602;-77
2023/03/23 07:13:46;;;;;;;26.80;21.70;;;;;;;11.28;66.66;99716.42;108668;1254;71270;-76
2023/03/23 07:16:13;;;;;;;23.60;21.20;;;;;;;11.37;66.23;99712.33;108507;1254;72890;-78
2023/03/23 07:18:44;;;;;;;27.10;22.50;;;;;;;11.46;66.05;99718.34;108659;1255;59234;-76
2023/03/23 07:21:13;;;;;;;26.00;22.60;;;;;;;11.53;65.68;99717.30;108713;1254;59449;-74
2023/03/23 07:23:41;;;;;;;28.70;23.10;;;;;;;11.60;65.75;99719.23;108858;1254;72459;-68
2023/03/23 07:26:16;;;;;;;27.10;22.20;;;;;;;11.67;65.69;99715.69;109112;1257;69019;-76
2023/03/23 07:28:49;;;;;;;26.30;22.10;;;;;;;11.77;65.43;99710.34;108597;1254;71816;-77
2023/03/23 07:31:25;;;;;;;24.10;21.00;;;;;;;11.86;64.83;99707.92;109122;1254;59135;-77
2023/03/23 07:33:54;;;;;;;23.50;20.80;;;;;;;11.95;64.54;99708.52;108832;1259;59440;-76
2023/03/23 07:36:22;;;;;;;27.70;23.80;;;;;;;12.04;64.45;99710.61;106877;1258;73849;-78
2023/03/23 07:38:49;;;;;;;26.50;23.00;;;;;;;12.14;63.94;99707.00;109064;1254;68597;-77
2023/03/23 07:41:23;;;;;;;;;;;;;;;12.23;63.65;99706.50;109301;1254;72682;-80
2023/03/23 07:43:50;;;;;;;29.00;22.80;;;;;;;12.32;63.76;99705.61;109157;1253;58638;-75
2023/03/23 07:46:32;;;;;;;25.70;22.90;;;;;;;12.44;63.24;99705.48;109015;1254;59184;-75
2023/03/23 07:49:09;;;;;;;29.30;25.00;;;;;;;12.53;62.80;99708.33;107803;1254;74743;-74
2023/03/23 07:51:41;;;;;;;29.30;23.30;;;;;;;12.63;62.50;99703.36;107125;1258;69565;-75
2023/03/23 07:54:10;;;;;;;27.90;24.20;;;;;;;12.71;62.20;99703.52;107028;1254;71756;-74
2023/03/23 07:56:54;;;;;;;31.40;24.90;;;;;;;12.80;62.12;99698.39;109213;1254;59597;-74
2023/03/23 07:59:31;;;;;;;30.50;23.60;;;;;;;12.92;61.73;99708.64;109135;1253;60345;-74
2023/03/23 08:01:59;;;;;;;30.30;23.90;;;;;;;12.97;61.37;99700.02;109067;1253;73048;-76
2023/03/23 08:04:44;;;;;;;28.90;25.30;;;;;;;13.04;61.28;99702.03;109306;1253;68572;-79
2023/03/23 08:07:23;;;;;;;31.80;25.70;;;;;;;13.12;60.96;99707.28;109211;1254;71716;-79
2023/03/23 08:10:17;;;;;;;28.10;24.40;;;;;;;13.18;60.78;99705.01;109050;1254;60282;-79
2023/03/23 08:13:30;;;;;;;31.00;24.60;;;;;;;13.25;60.59;99700.08;108825;1257;59598;-77
2023/03/23 08:16:09;;;;;;;28.60;24.80;;;;;;;13.32;60.68;99694.41;108949;1257;73500;-73
2023/03/23 08:19:02;;;;;;;28.90;23.90;;;;;;;13.44;60.38;99698.29;109106;1260;70394;-74
2023/03/23 08:21:39;;;;;;;27.90;24.90;;;;;;;13.52;60.25;99693.34;107688;1259;72695;-74
2023/03/23 08:24:26;;;;;;;25.90;23.10;;;;;;;13.62;59.85;99698.62;106004;1257;60146;-74
2023/03/23 08:27:16;;;;;;;29.30;22.50;;;;;;;13.70;59.49;99695.75;109163;1254;58508;-77
2023/03/23 08:29:59;;;;;;;26.60;23.30;;;;;;;13.79;59.43;99690.83;109409;1254;73539;-78
2023/03/23 08:32:48;;;;;;;28.70;22.90;;;;;;;13.89;59.19;99691.24;109113;1254;69250;-75
2023/03/23 08:35:29;;;;;;;28.70;23.20;;;;;;;14.03;59.04;99690.92;108932;1254;71628;-76
2023/03/23 08:37:57;;;;;;;29.10;22.80;;;;;;;14.16;58.69;99684.26;107681;1254;60430;-76
2023/03/23 08:40:43;;;;;;;24.10;20.20;;;;;;;14.31;58.23;99679.98;106229;1254;60519;-76
2023/03/23 08:43:37;;;;;;;26.20;21.90;;;;;;;14.42;57.40;99677.73;105907;1260;74100;-74
2023/03/23 08:46:20;;;;;;;;;;;;;;;14.46;57.26;99676.52;106071;1257;70435;-76
2023/03/23 08:49:20;;;;;;;28.20;22.60;;;;;;;14.49;57.54;99671.02;105911;1255;70787;-74
2023/03/23 08:52:09;;;;;;;22.50;20.10;;;;;;;14.56;56.99;99677.55;105649;1258;60537;-76
2023/03/23 08:55:12;;;;;;;;;;;;;;;14.58;56.50;99684.47;105719;1254;60425;-76
2023/03/23 08:57:53;;;;;;;23.60;19.70;;;;;;;14.52;56.74;99678.56;105714;1260;72840;-75
2023/03/23 09:00:34;;;;;;;21.30;18.80;;;;;;;14.49;56.93;99677.98;105538;1254;70548;-73
2023/03/23 09:03:09;;;;;;;22.70;20.30;;;;;;;14.50;56.85;99670.87;105884;1257;73489;-76
2023/03/23 09:06:01;;;;;;;24.80;18.90;;;;;;;14.53;56.87;99672.41;106238;1255;60516;-78
2023/03/23 09:08:39;;;;;;;22.30;19.90;;;;;;;14.59;56.79;99669.11;106787;1254;60577;-77
2023/03/23 09:11:08;;;;;;;21.90;19.50;;;;;;;14.65;56.86;99672.06;106397;1256;73188;-76
2023/03/23 09:13:36;;;;;;;24.70;19.20;;;;;;;14.73;56.84;99667.91;106003;1259;70392;-77
2023/03/23 09:16:05;;;;;;;22.30;19.90;;;;;;;14.82;56.30;99675.54;106151;1257;73228;-78
2023/03/23 09:18:35;;;;;;;22.00;18.30;;;;;;;14.88;55.98;99668.94;105941;1257;60548;-78
2023/03/23 09:21:03;;;;;;;21.10;18.70;;;;;;;14.87;55.86;99675.98;105823;1254;60506;-78
2023/03/23 09:23:31;;;;;;;20.60;18.40;;;;;;;14.84;55.95;99671.34;105860;1255;75967;-80
2023/03/23 09:26:00;;;;;;;20.90;18.80;;;;;;;14.81;56.08;99662.45;105738;1254;70017;-79
2023/03/23 09:28:28;;;;;;;20.70;18.40;;;;;;;14.83;56.24;99655.66;106070;1257;72225;-77
2023/03/23 09:30:57;;;;;;;20.50;18.30;;;;;;;14.87;56.00;99656.36;106036;1254;61361;-79
2023/03/23 09:33:25;;;;;;;21.90;19.50;;;;;;;14.89;56.12;99651.46;106504;1254;60419;-81
2023/03/23 09:35:54;;;;;;;24.30;18.70;;;;;;;14.92;56.32;99645.39;106641;1257;74956;-81
2023/03/23 09:38:22;;;;;;;23.00;17.20;;;;;;;14.98;56.26;99647.80;106532;1258;69474;-82
2023/03/23 09:40:54;;;;;;;21.80;18.60;;;;;;;15.02;55.91;99651.93;106090;1256;72311;-83
2023/03/23 09:43:46;;;;;;;23.10;18.30;;;;;;;15.01;55.88;99646.56;106062;1254;61468;-81
2023/03/23 09:46:34;;;;;;;21.00;18.40;;;;;;;15.01;56.11;99644.40;106018;1254;60814;-81
2023/03/23 09:49:07;;;;;;;20.80;17.40;;;;;;;15.03;56.11;99647.04;106145;1257;72569;-81
2023/03/23 09:51:45;;;;;;;21.60;18.70;;;;;;;15.01;55.96;99648.79;106083;1260;70293;-80
2023/03/23 09:54:28;;;;;;;20.30;18.20;;;;;;;14.95;56.12;99641.79;106112;1254;72556;-79
2023/03/23 09:56:56;;;;;;;23.60;18.50;;;;;;;14.88;56.30;99632.36;106399;1254;60604;-77
2023/03/23 09:59:35;;;;;;;21.80;18.70;;;;;;;14.80;56.55;99636.44;106576;1253;60547;-77
2023/03/23 10:02:18;;;;;;;20.20;18.00;;;;;;;14.74;56.67;99635.67;107112;1253;73486;-75
2023/03/23 10:04:47;;;;;;;;;;;;;;;14.74;56.81;99627.02;106788;1257;70364;-75
2023/03/23 10:07:23;;;;;;;21.00;16.90;;;;;;;14.74;57.13;99627.03;106469;1257;71721;-79
2023/03/23 10:09:57;;;;;;;19.90;17.90;;;;;;;14.73;56.84;99627.30;105914;1257;60406;-75
2023/03/23 10:12:33;;;;;;;20.90;17.50;;;;;;;14.72;56.80;99625.13;105840;1258;61236;-75
2023/03/23 10:15:14;;;;;;;19.10;17.20;;;;;;;14.71;56.85;99617.96;106014;1257;74957;-76
2023/03/23 10:17:48;;;;;;;19.90;17.70;;;;;;;14.74;56.72;99614.90;105843;1254;71800;-78
2023/03/23 10:20:46;;;;;;;24.00;18.80;;;;;;;14.79;56.53;99612.90;105928;1254;71663;-80
2023/03/23 10:23:19;;;;;;;19.60;17.40;;;;;;;14.87;56.73;99609.23;105990;1257;60701;-77
2023/03/23 10:26:11;;;;;;;20.70;18.20;;;;;;;15.01;56.39;99605.51;105860;1254;60511;-77
2023/03/23 10:28:44;;;;;;;22.70;19.20;;;;;;;15.20;56.09;99608.95;105896;1257;73069;-74
2023/03/23 10:31:15;;;;;;;21.90;19.60;;;;;;;15.33;55.71;99607.86;105876;1259;70548;-71
2023/03/23 10:33:45;;;;;;;20.80;18.70;;;;;;;15.45;55.37;99604.26;105914;1256;70484;-71
2023/03/23 10:36:15;;;;;;;20.30;18.00;;;;;;;15.56;54.70;99609.52;105862;1254;61369;-75
2023/03/23 10:38:48;;;;;;;19.80;17.80;;;;;;;15.60;54.41;99606.15;106218;1254;60685;-79
2023/03/23 10:41:18;;;;;;;22.00;19.60;;;;;;;15.59;54.58;99607.62;106974;1254;74006;-78
2023/03/23 10:43:52;;;;;;;22.90;19.90;;;;;;;15.52;54.46;99600.52;106083;1253;71490;-79
2023/03/23 10:46:35;;;;;;;20.20;18.00;;;;;;;15.45;54.85;99592.04;106280;1256;73885;-77
2023/03/23 10:49:04;;;;;;;22.80;18.50;;;;;;;15.42;54.90;99588.86;105992;1253;60613;-80
2023/03/23 10:51:36;;;;;;;20.40;18.20;;;;;;;15.44;54.90;99587.59;106184;1257;61166;-71
2023/03/23 10:54:07;;;;;;;20.20;18.10;;;;;;;15.54;55.10;99580.23;107554;1253;74781;-76
2023/03/23 10:56:46;;;;;;;20.70;18.50;;;;;;;15.67;54.71;99578.19;108676;1253;69147;-75
2023/03/23 10:59:20;;;;;;;19.10;16.20;;;;;;;15.85;54.18;99577.84;106185;1258;71970;-73
2023/03/23 11:01:50;;;;;;;20.90;17.50;;;;;;;15.98;53.37;99570.41;105962;1253;60546;-75
2023/03/23 11:04:18;;;;;;;19.90;17.10;;;;;;;16.06;52.59;99566.48;105870;1254;60344;-78
2023/03/23 11:06:50;;;;;;;20.90;17.00;;;;;;;16.16;52.50;99562.94;105641;1260;73443;-73
2023/03/23 11:09:20;;;;;;;17.90;16.00;;;;;;;16.32;51.98;99557.41;106071;1254;71572;-76
2023/03/23 11:11:55;;;;;;;18.60;16.70;;;;;;;16.49;51.44;99555.59;106300;1252;72597;-79
2023/03/23 11:14:28;;;;;;;16.30;14.60;;;;;;;16.64;50.61;99563.50;106044;1252;60458;-80
2023/03/23 11:16:57;;;;;;;19.00;15.20;;;;;;;16.67;49.28;99563.23;106011;1254;60451;-78
2023/03/23 11:19:30;;;;;;;17.00;15.20;;;;;;;16.61;49.42;99556.98;105983;1253;72877;-80
2023/03/23 11:22:13;;;;;;;17.80;15.00;;;;;;;16.54;49.62;99554.05;106015;1253;70576;-77
2023/03/23 11:24:43;;;;;;;18.30;15.70;;;;;;;16.48;49.87;99546.80;105648;1254;190888;-76
2023/03/23 11:28:01;;;;;;;22.60;17.00;;;;;;;16.42;50.23;99549.27;102759;1294;600333;-78
2023/03/23 11:30:30;;;;;;;19.20;15.80;;;;;;;16.38;50.44;99547.05;105141;1266;60622;-81
2023/03/23 11:33:00;;;;;;;17.30;15.30;;;;;;;16.40;50.33;99546.08;105224;1271;60104;-84
2023/03/23 11:35:27;;;;;;;17.90;16.10;;;;;;;16.40;50.33;99544.64;105229;1266;72363;-77
2023/03/23 11:37:58;;;;;;;19.40;17.10;;;;;;;16.39;50.65;99537.72;104970;1273;71027;-76
2023/03/23 11:40:31;;;;;;;19.50;17.50;;;;;;;16.38;50.95;99537.22;104992;1270;150655;-79
2023/03/23 11:43:00;;;;;;;20.30;17.80;;;;;;;16.42;50.90;99527.61;105185;1268;60346;-76
2023/03/23 11:45:36;;;;;;;24.40;15.60;;;;;;;16.46;50.94;99529.00;105767;1264;59765;-76
2023/03/23 11:48:26;;;;;;;18.30;16.40;;;;;;;16.47;49.77;99519.59;107031;1263;70674;-77
2023/03/23 11:51:13;;;;;;;17.90;15.30;;;;;;;16.43;49.88;99517.10;106757;1267;70084;-78